Time;durP1;ratioP1;P1;durP2;ratioP2;P2;SDS_P1;SDS_P2;PMS_P1;PMS_P2;Temp;Humidity;BMP_temperature;BMP_pressure;BME280_temperature;BME280_humidity;BME280_pressure;Samples;Min_cycle;Max_cycle;Signal;HPM_P1;HPM_P2
2021/01/19 00:01:13;;;;;;;53.58;14.82;;;2.10;99.90;;;;;;4866924;28;20084;-82
2021/01/19 00:03:36;;;;;;;52.88;15.18;;;2.10;99.90;;;;;;4863776;28;20091;-83
2021/01/19 00:05:59;;;;;;;48.28;14.25;;;2.10;99.90;;;;;;4873134;28;20136;-82
2021/01/19 00:08:24;;;;;;;47.72;14.50;;;2.10;99.90;;;;;;4873574;28;20102;-82
2021/01/19 00:10:47;;;;;;;49.80;14.00;;;2.10;99.90;;;;;;4865167;28;20100;-83
2021/01/19 00:13:10;;;;;;;50.53;15.32;;;2.10;99.90;;;;;;4866369;28;20119;-83
2021/01/19 00:15:33;;;;;;;53.70;15.80;;;2.10;99.90;;;;;;4855830;28;20125;-82
2021/01/19 00:17:56;;;;;;;52.50;14.98;;;2.10;99.90;;;;;;4880211;28;20147;-82
2021/01/19 00:20:19;;;;;;;55.75;16.48;;;2.10;99.90;;;;;;4870908;28;20102;-82
2021/01/19 00:22:43;;;;;;;62.53;16.70;;;2.20;99.90;;;;;;4871672;28;20084;-82
2021/01/19 00:25:09;;;;;;;53.53;17.27;;;2.20;99.90;;;;;;4867015;28;20101;-83
2021/01/19 00:27:32;;;;;;;62.55;14.50;;;2.10;99.90;;;;;;4860232;28;20096;-82
2021/01/19 00:29:55;;;;;;;57.28;15.85;;;2.10;99.90;;;;;;4862152;28;20165;-81
2021/01/19 00:32:18;;;;;;;68.13;16.77;;;2.20;99.90;;;;;;4863658;28;20084;-81
2021/01/19 00:34:41;;;;;;;61.08;16.38;;;2.20;99.90;;;;;;4866261;28;20471;-82
2021/01/19 00:37:04;;;;;;;59.80;16.90;;;2.20;99.90;;;;;;4862844;28;20094;-83
2021/01/19 00:39:27;;;;;;;48.63;15.63;;;2.20;99.90;;;;;;4867358;28;20086;-83
2021/01/19 00:41:51;;;;;;;58.33;15.50;;;2.20;99.90;;;;;;4861620;28;20127;-84
2021/01/19 00:44:14;;;;;;;52.65;16.65;;;2.20;99.90;;;;;;4863540;28;20092;-83
2021/01/19 00:46:37;;;;;;;51.03;16.90;;;2.20;99.90;;;;;;4864729;28;20186;-83
2021/01/19 00:49:00;;;;;;;63.33;15.75;;;2.20;99.90;;;;;;4865521;28;20147;-82
2021/01/19 00:51:24;;;;;;;59.13;16.17;;;2.20;99.90;;;;;;4865459;28;20486;-83
2021/01/19 00:53:49;;;;;;;59.95;16.95;;;2.20;99.90;;;;;;4857228;28;20489;-83
2021/01/19 00:56:12;;;;;;;43.17;11.85;;;2.20;99.90;;;;;;4862611;28;20093;-81
2021/01/19 00:58:36;;;;;;;60.78;17.15;;;;;;;;;;4865672;28;20145;-82
2021/01/19 01:00:59;;;;;;;66.25;16.92;;;2.30;99.90;;;;;;4863274;28;20096;-82
2021/01/19 01:03:23;;;;;;;60.50;16.52;;;2.30;99.90;;;;;;4863191;28;20115;-81
2021/01/19 01:05:48;;;;;;;56.17;15.65;;;2.30;99.90;;;;;;4857975;28;20100;-84
2021/01/19 01:08:11;;;;;;;50.05;15.65;;;2.20;99.90;;;;;;4865583;28;20098;-83
2021/01/19 01:10:34;;;;;;;47.58;15.38;;;2.20;99.90;;;;;;4866950;28;20125;-83
2021/01/19 01:12:57;;;;;;;49.00;14.13;;;2.20;99.90;;;;;;4865784;28;20443;-82
2021/01/19 01:15:29;;;;;;;53.83;14.43;;;2.10;99.90;;;;;;4870742;28;20417;-83
2021/01/19 01:17:52;;;;;;;50.55;13.93;;;2.20;99.90;;;;;;4862130;28;20085;-83
2021/01/19 01:20:16;;;;;;;45.22;14.05;;;2.20;99.90;;;;;;4861648;28;20103;-83
2021/01/19 01:22:42;;;;;;;46.92;15.55;;;2.20;99.90;;;;;;4863924;28;20141;-85
2021/01/19 01:25:05;;;;;;;48.55;15.35;;;2.20;99.90;;;;;;4865418;28;20119;-83
2021/01/19 01:27:28;;;;;;;53.33;15.18;;;2.20;99.90;;;;;;4871002;28;20100;-83
2021/01/19 01:29:51;;;;;;;59.95;15.18;;;2.20;99.90;;;;;;4865504;28;20093;-82
2021/01/19 01:32:15;;;;;;;55.90;15.80;;;;;;;;;;4851963;28;20090;-83
2021/01/19 01:34:38;;;;;;;75.05;17.08;;;2.20;99.90;;;;;;4842731;28;20101;-81
2021/01/19 01:37:02;;;;;;;52.70;16.20;;;2.30;99.90;;;;;;4842470;28;20087;-83
2021/01/19 01:39:25;;;;;;;44.13;14.52;;;2.30;99.90;;;;;;4872604;28;20089;-82
2021/01/19 01:41:48;;;;;;;59.25;17.23;;;;;;;;;;4871345;28;20091;-82
2021/01/19 01:44:12;;;;;;;70.68;16.70;;;2.30;99.90;;;;;;4844055;28;20097;-82
2021/01/19 01:46:36;;;;;;;52.72;16.45;;;2.40;99.90;;;;;;4867441;28;20490;-81
2021/01/19 01:49:01;;;;;;;60.83;17.20;;;2.30;99.90;;;;;;4869212;28;20523;-83
2021/01/19 01:51:27;;;;;;;60.60;16.58;;;2.40;99.90;;;;;;4860565;28;20198;-84
2021/01/19 01:53:51;;;;;;;63.47;16.67;;;2.40;99.90;;;;;;4862130;28;20084;-83
2021/01/19 01:56:16;;;;;;;58.97;15.77;;;2.30;99.90;;;;;;4857874;28;20163;-84
2021/01/19 01:58:39;;;;;;;55.30;17.15;;;2.30;99.90;;;;;;4866935;28;20529;-83
2021/01/19 02:01:03;;;;;;;55.15;16.15;;;2.30;99.90;;;;;;4865657;28;20503;-82
2021/01/19 02:03:26;;;;;;;60.45;17.55;;;2.30;99.90;;;;;;4862460;28;20591;-83
2021/01/19 02:05:50;;;;;;;62.92;17.00;;;2.30;99.90;;;;;;4861309;28;20091;-82
2021/01/19 02:08:24;;;;;;;56.47;16.67;;;2.30;99.90;;;;;;4861800;28;20103;-82
2021/01/19 02:10:56;;;;;;;66.47;16.27;;;2.30;99.90;;;;;;4862880;28;20443;-83
2021/01/19 02:13:30;;;;;;;63.42;16.77;;;2.30;99.90;;;;;;4868933;28;20084;-81
2021/01/19 02:15:59;;;;;;;62.05;16.27;;;2.30;99.90;;;;;;4870476;28;20105;-83
2021/01/19 02:18:30;;;;;;;54.83;16.52;;;2.30;99.90;;;;;;4862223;28;20084;-82
2021/01/19 02:21:25;;;;;;;54.47;15.68;;;2.20;99.90;;;;;;4850706;28;20454;-84
2021/01/19 02:23:55;;;;;;;59.70;16.10;;;2.20;99.90;;;;;;4852657;28;20092;-81
2021/01/19 02:26:58;;;;;;;51.67;15.27;;;2.30;99.90;;;;;;4861829;28;20092;-82
2021/01/19 02:29:48;;;;;;;56.83;15.20;;;2.30;99.90;;;;;;4866189;28;20505;-82
2021/01/19 02:32:24;;;;;;;52.92;14.82;;;2.30;99.90;;;;;;4842889;28;20494;-82
2021/01/19 02:34:54;;;;;;;65.05;15.88;;;2.30;99.90;;;;;;4863909;28;20148;-82
2021/01/19 02:37:24;;;;;;;52.17;16.02;;;2.20;99.90;;;;;;4869877;28;20085;-83
2021/01/19 02:39:51;;;;;;;46.17;14.98;;;2.20;99.90;;;;;;4863366;28;20140;-83
2021/01/19 02:42:25;;;;;;;55.75;16.85;;;2.20;99.90;;;;;;4861592;28;20101;-83
2021/01/19 02:44:50;;;;;;;53.70;15.13;;;2.20;99.90;;;;;;4860555;28;20080;-81
2021/01/19 02:47:15;;;;;;;41.45;14.18;;;2.20;99.90;;;;;;4861738;28;20079;-81
2021/01/19 02:49:38;;;;;;;56.72;15.80;;;2.30;99.90;;;;;;4868896;28;20089;-80
2021/01/19 02:52:02;;;;;;;55.45;16.35;;;2.30;99.90;;;;;;4870673;28;20091;-82
2021/01/19 02:54:26;;;;;;;50.67;15.05;;;2.20;99.90;;;;;;4863944;28;20134;-82
2021/01/19 02:57:02;;;;;;;52.05;14.40;;;2.30;99.90;;;;;;4861182;28;20146;-82
2021/01/19 02:59:32;;;;;;;42.85;13.43;;;2.30;99.90;;;;;;4860925;28;20099;-82
2021/01/19 03:02:08;;;;;;;45.05;14.02;;;2.30;99.90;;;;;;4865354;28;20095;-80
2021/01/19 03:04:33;;;;;;;51.67;15.63;;;2.30;99.90;;;;;;4856058;28;20762;-83
2021/01/19 03:06:58;;;;;;;52.85;15.80;;;2.30;99.90;;;;;;4867648;28;20099;-81
2021/01/19 03:09:23;;;;;;;59.63;16.50;;;2.30;99.90;;;;;;4867735;28;20111;-81
2021/01/19 03:11:48;;;;;;;60.42;16.33;;;2.30;99.90;;;;;;4861813;28;20092;-81
2021/01/19 03:14:11;;;;;;;;;;;2.30;99.90;;;;;;4860632;28;20087;-82
2021/01/19 03:16:34;;;;;;;42.35;14.43;;;2.20;99.90;;;;;;4863756;28;19971;-82
2021/01/19 03:18:58;;;;;;;50.20;14.38;;;2.30;99.90;;;;;;4866715;28;20084;-83
2021/01/19 03:21:22;;;;;;;62.40;16.02;;;2.20;99.90;;;;;;4864188;28;20501;-83
2021/01/19 03:23:45;;;;;;;52.33;15.43;;;2.30;99.90;;;;;;4862272;28;20104;-83
2021/01/19 03:26:09;;;;;;;49.58;15.70;;;2.30;99.90;;;;;;4866248;28;20083;-82
2021/01/19 03:28:32;;;;;;;42.58;15.05;;;2.30;99.90;;;;;;4864970;28;20092;-83
2021/01/19 03:30:55;;;;;;;64.88;16.35;;;2.40;99.90;;;;;;4866820;28;20084;-84
2021/01/19 03:33:18;;;;;;;54.08;14.90;;;2.40;99.90;;;;;;4867428;28;20123;-83
2021/01/19 03:35:41;;;;;;;54.58;15.63;;;2.40;99.90;;;;;;4865239;28;20122;-82
2021/01/19 03:38:05;;;;;;;61.47;16.95;;;;;;;;;;4862258;28;20092;-82
2021/01/19 03:40:28;;;;;;;51.97;16.63;;;2.40;99.90;;;;;;4870157;28;20096;-84
2021/01/19 03:42:52;;;;;;;46.00;14.50;;;2.40;99.90;;;;;;4875205;28;20197;-82
2021/01/19 03:45:15;;;;;;;58.22;16.95;;;2.50;99.90;;;;;;4865151;28;20088;-81
2021/01/19 03:47:38;;;;;;;58.00;16.20;;;2.50;99.90;;;;;;4869177;28;20084;-82
2021/01/19 03:50:02;;;;;;;58.13;16.40;;;2.50;99.90;;;;;;4863975;28;20081;-82
2021/01/19 03:52:24;;;;;;;53.65;16.60;;;2.50;99.90;;;;;;4866445;28;20089;-83
2021/01/19 03:54:48;;;;;;;53.58;16.15;;;2.40;99.90;;;;;;4870830;28;20088;-82
2021/01/19 03:57:11;;;;;;;59.85;16.30;;;2.40;99.90;;;;;;4865235;28;20123;-83
2021/01/19 03:59:34;;;;;;;48.85;15.45;;;2.40;99.90;;;;;;4873489;28;20103;-84
2021/01/19 04:01:57;;;;;;;52.17;15.93;;;2.40;99.90;;;;;;4874323;28;20096;-83
2021/01/19 04:04:20;;;;;;;48.50;15.43;;;2.40;99.90;;;;;;4863391;28;20085;-82
2021/01/19 04:06:43;;;;;;;52.10;15.43;;;2.40;99.90;;;;;;4873606;28;20110;-81
2021/01/19 04:09:06;;;;;;;50.10;16.42;;;2.40;99.90;;;;;;4863659;28;20142;-81
2021/01/19 04:11:30;;;;;;;64.63;16.77;;;2.40;99.90;;;;;;4867838;28;20096;-82
2021/01/19 04:13:53;;;;;;;53.15;16.10;;;2.40;99.90;;;;;;4869142;28;20149;-82
2021/01/19 04:16:16;;;;;;;69.25;17.42;;;2.40;99.90;;;;;;4866468;28;20084;-83
2021/01/19 04:18:39;;;;;;;55.95;17.50;;;2.40;99.90;;;;;;4860818;28;20565;-82
2021/01/19 04:21:04;;;;;;;61.80;17.75;;;2.40;99.90;;;;;;4863513;28;20103;-82
2021/01/19 04:23:27;;;;;;;64.65;18.00;;;2.40;99.90;;;;;;4866693;28;20091;-81
2021/01/19 04:25:51;;;;;;;60.03;17.27;;;2.50;99.90;;;;;;4862633;28;20096;-83
2021/01/19 04:28:15;;;;;;;54.72;16.92;;;2.40;99.90;;;;;;4862272;28;20091;-81
2021/01/19 04:30:39;;;;;;;61.08;17.58;;;;;;;;;;4861491;28;20091;-81
2021/01/19 04:33:01;;;;;;;56.90;17.67;;;2.40;99.90;;;;;;4866770;28;20093;-83
2021/01/19 04:35:25;;;;;;;58.55;16.15;;;2.50;99.90;;;;;;4866930;28;20531;-82
2021/01/19 04:37:49;;;;;;;53.67;15.77;;;2.50;99.90;;;;;;4863257;28;20090;-82
2021/01/19 04:40:13;;;;;;;62.45;16.20;;;2.50;99.90;;;;;;4863950;28;20095;-79
2021/01/19 04:42:37;;;;;;;58.83;17.00;;;2.50;99.90;;;;;;4863622;28;20228;-83
2021/01/19 04:45:03;;;;;;;53.45;16.05;;;2.50;99.90;;;;;;4863194;28;20088;-83
2021/01/19 04:47:28;;;;;;;55.42;16.73;;;2.50;99.90;;;;;;4862423;28;20099;-80
2021/01/19 04:49:54;;;;;;;60.88;16.55;;;2.50;99.90;;;;;;4865811;28;20526;-82
2021/01/19 04:52:19;;;;;;;53.35;15.30;;;2.50;99.90;;;;;;4861289;28;20107;-82
2021/01/19 04:55:04;;;;;;;55.38;17.52;;;2.50;99.90;;;;;;4865078;28;20628;-82
2021/01/19 04:57:31;;;;;;;56.17;17.25;;;2.50;99.90;;;;;;4860996;28;20089;-81
2021/01/19 05:00:01;;;;;;;57.65;16.40;;;2.60;99.90;;;;;;4862816;28;20095;-82
2021/01/19 05:02:45;;;;;;;56.33;17.45;;;2.60;99.90;;;;;;4862626;28;20081;-83
2021/01/19 05:05:26;;;;;;;60.85;17.77;;;2.60;99.90;;;;;;4862655;28;20095;-81
2021/01/19 05:08:12;;;;;;;65.25;17.70;;;2.50;99.90;;;;;;4858724;28;20165;-82
2021/01/19 05:10:37;;;;;;;57.87;17.57;;;2.50;99.90;;;;;;4860646;28;20094;-82
2021/01/19 05:13:07;;;;;;;54.42;17.75;;;2.60;99.90;;;;;;4868722;28;20080;-82
2021/01/19 05:15:31;;;;;;;51.80;16.77;;;2.60;99.90;;;;;;4872197;28;20179;-83
2021/01/19 05:17:59;;;;;;;64.13;18.25;;;2.60;99.90;;;;;;4870969;28;20162;-82
2021/01/19 05:20:30;;;;;;;58.65;18.38;;;2.50;99.90;;;;;;4863777;28;20076;-83
2021/01/19 05:22:58;;;;;;;63.17;17.98;;;2.50;99.90;;;;;;4870797;28;20290;-83
2021/01/19 05:25:21;;;;;;;59.63;18.95;;;2.50;99.90;;;;;;4866254;28;20091;-81
2021/01/19 05:27:44;;;;;;;51.75;17.95;;;2.50;99.90;;;;;;4869057;28;20098;-81
2021/01/19 05:30:08;;;;;;;67.22;18.83;;;2.50;99.90;;;;;;4866076;28;20089;-82
2021/01/19 05:32:39;;;;;;;63.08;19.23;;;2.50;99.90;;;;;;4849778;28;20158;-82
2021/01/19 05:35:16;;;;;;;59.80;18.17;;;2.50;99.90;;;;;;4864398;28;20205;-82
2021/01/19 05:37:43;;;;;;;52.42;17.48;;;2.50;99.90;;;;;;4868507;28;20107;-81
2021/01/19 05:40:08;;;;;;;57.35;15.68;;;2.50;99.90;;;;;;4870721;28;20088;-82
2021/01/19 05:42:33;;;;;;;57.42;16.88;;;2.30;99.90;;;;;;4851082;28;20093;-83
2021/01/19 05:44:56;;;;;;;59.50;18.13;;;2.30;99.90;;;;;;4863407;28;20097;-81
2021/01/19 05:47:19;;;;;;;56.00;15.98;;;2.40;99.90;;;;;;4855137;28;20495;-81
2021/01/19 05:49:43;;;;;;;61.17;15.68;;;2.40;99.90;;;;;;4865246;28;20597;-82
2021/01/19 05:52:08;;;;;;;54.92;16.25;;;2.40;99.90;;;;;;4869255;28;20222;-81
2021/01/19 05:54:33;;;;;;;47.42;15.88;;;2.40;99.90;;;;;;4872319;28;20181;-82
2021/01/19 05:57:08;;;;;;;56.67;15.45;;;2.40;99.90;;;;;;4861839;28;20087;-81
2021/01/19 05:59:35;;;;;;;52.75;15.27;;;2.40;99.90;;;;;;4874002;28;20088;-81
2021/01/19 06:02:03;;;;;;;39.55;15.77;;;2.40;99.90;;;;;;4862319;28;20091;-82
2021/01/19 06:04:35;;;;;;;45.58;14.93;;;2.50;99.90;;;;;;4864347;28;20079;-82
2021/01/19 06:06:59;;;;;;;41.55;14.77;;;2.50;99.90;;;;;;4860827;28;20551;-81
2021/01/19 06:09:24;;;;;;;47.80;14.82;;;2.50;99.90;;;;;;4851492;28;20545;-80
2021/01/19 06:11:51;;;;;;;42.25;14.63;;;2.50;99.90;;;;;;4857062;28;20505;-82
2021/01/19 06:14:22;;;;;;;52.58;16.67;;;2.50;99.90;;;;;;4863753;28;20627;-81
2021/01/19 06:16:45;;;;;;;45.70;14.98;;;2.50;99.90;;;;;;4867752;28;20115;-82
2021/01/19 06:19:08;;;;;;;48.75;14.02;;;2.50;99.90;;;;;;4854131;28;20474;-80
2021/01/19 06:21:34;;;;;;;47.47;15.27;;;2.50;99.90;;;;;;4867657;28;20177;-81
2021/01/19 06:23:57;;;;;;;43.65;14.38;;;2.40;99.90;;;;;;4861012;28;20095;-82
2021/01/19 06:26:21;;;;;;;49.15;15.73;;;4.10;99.90;;;;;;4860993;28;20116;-82
2021/01/19 06:28:45;;;;;;;44.38;14.85;;;2.30;99.90;;;;;;4870672;28;20083;-82
2021/01/19 06:31:12;;;;;;;55.28;16.58;;;2.30;99.90;;;;;;4861712;28;20080;-82
2021/01/19 06:33:36;;;;;;;52.92;16.15;;;2.30;99.90;;;;;;4861955;28;20108;-82
2021/01/19 06:36:00;;;;;;;58.88;17.15;;;2.30;99.90;;;;;;4864385;28;20126;-82
2021/01/19 06:38:24;;;;;;;52.08;15.35;;;2.20;99.90;;;;;;4863873;28;20083;-81
2021/01/19 06:40:50;;;;;;;47.67;15.73;;;2.20;99.90;;;;;;4863316;28;20101;-82
2021/01/19 06:43:18;;;;;;;48.33;14.90;;;2.20;99.90;;;;;;4859898;28;20089;-80
2021/01/19 06:45:47;;;;;;;48.20;16.20;;;2.20;99.90;;;;;;4864395;28;20168;-82
2021/01/19 06:48:11;;;;;;;50.65;15.63;;;2.20;99.90;;;;;;4870100;28;20428;-82
2021/01/19 06:50:36;;;;;;;48.05;15.45;;;2.20;99.90;;;;;;4866907;28;20081;-81
2021/01/19 06:53:14;;;;;;;39.20;12.93;;;2.20;99.90;;;;;;4872888;28;20088;-82
2021/01/19 06:55:40;;;;;;;49.70;15.57;;;2.20;99.90;;;;;;4873563;28;20089;-83
2021/01/19 06:58:24;;;;;;;45.45;16.42;;;2.10;99.90;;;;;;4873806;28;20095;-81
2021/01/19 07:00:58;;;;;;;42.15;15.93;;;2.20;99.90;;;;;;4871140;28;20099;-82
2021/01/19 07:03:24;;;;;;;57.05;16.83;;;2.20;99.90;;;;;;4869909;28;20092;-81
2021/01/19 07:05:49;;;;;;;;;;;2.20;99.90;;;;;;4865654;28;20093;-82
2021/01/19 07:08:49;;;;;;;62.30;17.00;;;2.10;99.90;;;;;;4866604;28;20001;-83
2021/01/19 07:11:40;;;;;;;51.80;16.77;;;2.20;99.90;;;;;;4874117;28;20561;-82
2021/01/19 07:14:12;;;;;;;57.95;18.15;;;2.20;99.90;;;;;;4864058;28;20092;-81
2021/01/19 07:16:46;;;;;;;52.42;16.98;;;2.10;99.90;;;;;;4867558;28;20092;-83
2021/01/19 07:19:19;;;;;;;56.03;18.35;;;2.10;99.90;;;;;;4870962;28;20445;-82
2021/01/19 07:22:06;;;;;;;58.97;18.33;;;2.10;99.90;;;;;;4866258;28;20103;-82
2021/01/19 07:24:39;;;;;;;53.00;17.75;;;2.10;99.90;;;;;;4874896;28;20085;-82
2021/01/19 07:27:04;;;;;;;59.90;17.75;;;2.10;99.90;;;;;;4867573;28;20438;-82
2021/01/19 07:29:28;;;;;;;55.45;18.50;;;2.10;99.90;;;;;;4867741;28;20435;-82
2021/01/19 07:31:51;;;;;;;54.85;17.77;;;2.10;99.90;;;;;;4867617;28;20103;-83
2021/01/19 07:34:18;;;;;;;61.03;18.13;;;2.10;99.90;;;;;;4865924;28;20168;-81
2021/01/19 07:36:41;;;;;;;62.88;19.20;;;2.10;99.90;;;;;;4864744;28;20175;-81
2021/01/19 07:39:16;;;;;;;69.55;19.65;;;2.20;99.90;;;;;;4856006;28;20090;-82
2021/01/19 07:41:39;;;;;;;58.97;17.80;;;2.20;99.90;;;;;;4872752;28;20091;-82
2021/01/19 07:44:03;;;;;;;59.45;18.85;;;2.20;99.90;;;;;;4869922;28;20093;-82
2021/01/19 07:46:30;;;;;;;58.00;19.58;;;2.20;99.90;;;;;;4869938;28;20499;-82
2021/01/19 07:49:01;;;;;;;51.45;18.35;;;2.20;99.90;;;;;;4864820;28;20107;-82
2021/01/19 07:51:24;;;;;;;54.00;18.65;;;2.20;99.90;;;;;;4874768;28;20094;-82
2021/01/19 07:53:50;;;;;;;58.28;18.50;;;;;;;;;;4873351;28;20092;-82
2021/01/19 07:56:23;;;;;;;53.17;18.10;;;2.10;99.90;;;;;;4869824;28;20083;-81
2021/01/19 07:58:46;;;;;;;54.72;17.77;;;2.10;99.90;;;;;;4865988;28;20527;-82
2021/01/19 08:01:09;;;;;;;49.67;17.92;;;2.10;99.90;;;;;;4871918;28;21067;-81
2021/01/19 08:03:33;;;;;;;55.40;18.15;;;;;;;;;;4872289;28;20122;-82
2021/01/19 09:43:53;;;;;;;47.15;17.23;;;2.70;99.90;;;;;;4867391;28;20106;-84
2021/01/19 12:10:28;;;;;;;;;;;1.80;99.90;;;;;;4869307;28;20270;-81
2021/01/19 12:33:05;;;;;;;8.00;4.00;;;1.30;99.90;;;;;;4871671;28;20148;-85
2021/01/19 12:35:28;;;;;;;14.25;5.72;;;1.30;99.90;;;;;;4849087;28;20187;-82
2021/01/19 12:37:55;;;;;;;12.65;5.78;;;1.30;99.90;;;;;;4843693;28;20097;-83
2021/01/19 12:40:19;;;;;;;12.18;5.70;;;;;;;;;;4865463;28;20107;-83
2021/01/19 12:42:43;;;;;;;13.83;5.30;;;1.30;99.90;;;;;;4858248;28;20180;-82
2021/01/19 12:45:08;;;;;;;11.85;5.57;;;1.30;99.90;;;;;;4871116;28;20505;-84
2021/01/19 12:47:31;;;;;;;11.18;5.07;;;1.30;99.90;;;;;;4872893;28;20092;-82
2021/01/19 12:49:55;;;;;;;14.38;5.03;;;1.40;99.90;;;;;;4872772;28;20082;-83
2021/01/19 12:52:19;;;;;;;15.68;5.75;;;1.30;99.90;;;;;;4872280;28;20115;-81
2021/01/19 12:54:42;;;;;;;10.88;5.35;;;1.30;99.90;;;;;;4872764;28;20127;-83
2021/01/19 12:57:11;;;;;;;13.45;4.25;;;1.30;99.90;;;;;;4863843;28;20101;-81
2021/01/19 12:59:35;;;;;;;12.55;5.13;;;1.30;99.90;;;;;;4869593;28;20099;-81
2021/01/19 13:02:01;;;;;;;12.07;5.28;;;1.30;99.90;;;;;;4856286;28;20089;-82
2021/01/19 13:04:27;;;;;;;11.38;4.38;;;1.30;99.90;;;;;;4878553;28;20090;-83
2021/01/19 13:06:52;;;;;;;10.82;5.13;;;1.30;99.90;;;;;;4868419;28;20114;-83
2021/01/19 13:09:15;;;;;;;15.63;5.60;;;1.40;99.90;;;;;;4866016;28;20657;-82
2021/01/19 13:11:38;;;;;;;13.10;5.22;;;;;;;;;;4864653;28;20092;-84
2021/01/19 13:14:01;;;;;;;9.65;4.95;;;1.40;99.90;;;;;;4863115;28;20086;-81
2021/01/19 13:16:25;;;;;;;8.73;4.47;;;1.40;99.90;;;;;;4867090;28;20095;-83
2021/01/19 13:18:48;;;;;;;9.93;4.60;;;1.50;99.90;;;;;;4869963;28;20184;-82
2021/01/19 13:21:11;;;;;;;11.50;4.15;;;1.50;99.90;;;;;;4866874;28;20090;-81
2021/01/19 13:23:35;;;;;;;8.77;4.65;;;1.50;99.90;;;;;;4870056;28;20165;-83
2021/01/19 13:25:58;;;;;;;10.52;4.40;;;2.80;99.90;;;;;;4869884;28;20091;-83
2021/01/19 13:28:22;;;;;;;8.93;4.65;;;1.50;99.90;;;;;;4869569;28;20537;-83
2021/01/19 13:30:46;;;;;;;7.07;3.55;;;1.50;99.90;;;;;;4869096;28;20100;-82
2021/01/19 13:33:09;;;;;;;9.03;3.97;;;1.50;99.90;;;;;;4865673;28;20095;-83
2021/01/19 13:35:33;;;;;;;16.63;4.03;;;1.50;99.90;;;;;;4867759;28;20091;-82
2021/01/19 13:37:56;;;;;;;9.70;3.85;;;1.50;99.90;;;;;;4869394;28;20090;-84
2021/01/19 13:40:21;;;;;;;13.07;4.15;;;1.50;99.90;;;;;;4866366;28;20528;-83
2021/01/19 13:42:44;;;;;;;9.40;4.10;;;1.50;99.90;;;;;;4866005;28;20129;-83
2021/01/19 13:45:09;;;;;;;6.72;3.40;;;1.50;99.90;;;;;;4858624;28;20100;-83
2021/01/19 13:47:34;;;;;;;7.47;3.38;;;1.50;99.90;;;;;;4869413;28;20103;-83
2021/01/19 13:49:58;;;;;;;7.10;2.85;;;;;;;;;;4862173;28;20114;-82
2021/01/19 13:52:22;;;;;;;6.38;3.50;;;1.50;99.90;;;;;;4867143;28;20148;-83
2021/01/19 13:54:45;;;;;;;4.68;2.75;;;;;;;;;;4867071;28;20096;-83
2021/01/19 13:57:09;;;;;;;5.57;3.10;;;1.30;99.90;;;;;;4851787;28;20223;-82
2021/01/19 13:59:34;;;;;;;5.13;2.78;;;;;;;;;;4867068;28;20508;-82
2021/01/19 14:01:57;;;;;;;5.30;2.90;;;1.50;99.90;;;;;;4853129;28;20134;-83
2021/01/19 14:04:20;;;;;;;3.78;2.38;;;1.50;99.90;;;;;;4864551;28;20099;-82
2021/01/19 14:06:45;;;;;;;6.15;2.50;;;1.50;99.90;;;;;;4861779;28;20101;-84
2021/01/19 14:09:11;;;;;;;4.25;2.15;;;1.50;99.90;;;;;;4868811;28;20174;-82
2021/01/19 14:11:35;;;;;;;3.13;2.00;;;1.60;99.90;;;;;;4866721;28;20142;-84
2021/01/19 14:13:59;;;;;;;6.65;2.28;;;1.60;99.90;;;;;;4867385;28;20140;-82
2021/01/19 14:16:22;;;;;;;4.78;2.15;;;1.60;99.90;;;;;;4862207;28;20592;-81
2021/01/19 14:18:46;;;;;;;3.42;1.75;;;1.60;99.90;;;;;;4863229;28;20084;-83
2021/01/19 14:21:15;;;;;;;3.22;2.15;;;1.60;99.90;;;;;;4863364;28;20560;-82
2021/01/19 14:23:39;;;;;;;2.72;1.65;;;1.60;99.90;;;;;;4861009;28;20120;-83
2021/01/19 14:26:02;;;;;;;2.95;1.75;;;1.70;99.90;;;;;;4860967;28;20178;-83
2021/01/19 14:28:26;;;;;;;2.97;1.40;;;1.70;99.90;;;;;;4861860;28;20102;-83
2021/01/19 14:30:51;;;;;;;4.40;1.52;;;1.70;99.90;;;;;;4863680;28;20085;-84
2021/01/19 14:33:14;;;;;;;2.03;1.27;;;1.60;99.90;;;;;;4857196;28;20128;-83
2021/01/19 14:35:38;;;;;;;4.35;1.75;;;1.70;99.90;;;;;;4862468;28;20079;-82
2021/01/19 14:38:02;;;;;;;1.83;1.30;;;1.60;99.90;;;;;;4865070;28;20085;-82
2021/01/19 14:40:25;;;;;;;2.05;1.30;;;1.60;99.90;;;;;;4856913;28;20101;-82
2021/01/19 14:42:53;;;;;;;1.95;1.33;;;1.60;99.90;;;;;;4862940;28;20726;-83
2021/01/19 14:45:16;;;;;;;1.60;1.10;;;1.60;99.90;;;;;;4843247;28;20092;-84
2021/01/19 14:47:41;;;;;;;1.88;1.33;;;1.60;99.90;;;;;;4861175;28;20104;-84
2021/01/19 14:50:05;;;;;;;1.42;0.93;;;1.50;99.90;;;;;;4864762;28;20171;-83
2021/01/19 14:52:28;;;;;;;1.55;0.85;;;1.60;99.90;;;;;;4854592;28;20093;-84
2021/01/19 14:54:55;;;;;;;0.85;0.75;;;1.60;99.90;;;;;;4862847;28;20085;-84
2021/01/19 14:57:18;;;;;;;1.80;0.80;;;1.60;99.90;;;;;;4864467;28;20081;-81
2021/01/19 14:59:41;;;;;;;1.38;0.88;;;1.80;99.90;;;;;;4867040;28;20105;-83
2021/01/19 15:02:06;;;;;;;1.10;0.80;;;1.50;99.90;;;;;;4851147;28;20097;-83
2021/01/19 15:04:30;;;;;;;1.37;0.83;;;1.50;99.90;;;;;;4860329;28;20521;-83
2021/01/19 15:06:56;;;;;;;1.83;1.05;;;1.50;99.90;;;;;;4860893;28;20419;-84
2021/01/19 15:09:21;;;;;;;1.67;0.85;;;1.60;99.90;;;;;;4858299;28;20102;-83
2021/01/19 15:11:51;;;;;;;1.48;1.00;;;1.60;99.90;;;;;;4861718;28;20086;-84
2021/01/19 15:14:14;;;;;;;1.00;0.90;;;1.60;99.90;;;;;;4863787;28;20461;-84
2021/01/19 15:16:38;;;;;;;2.65;1.20;;;;;;;;;;4863494;28;20094;-83
2021/01/19 15:19:01;;;;;;;1.40;0.80;;;1.50;99.90;;;;;;4866400;28;20480;-83
2021/01/19 15:21:26;;;;;;;1.85;1.15;;;;;;;;;;4864899;28;20089;-83
2021/01/19 15:23:49;;;;;;;3.88;0.80;;;1.50;99.90;;;;;;4868089;28;20082;-83
2021/01/19 15:26:12;;;;;;;1.15;0.95;;;1.50;99.90;;;;;;4871824;28;20147;-82
2021/01/19 15:28:35;;;;;;;1.95;1.00;;;1.50;99.90;;;;;;4861719;28;20089;-83
2021/01/19 15:30:58;;;;;;;2.22;1.42;;;1.50;99.90;;;;;;4871305;28;20099;-84
2021/01/19 15:33:22;;;;;;;1.35;0.90;;;1.50;99.90;;;;;;4866307;28;20091;-84
2021/01/19 15:35:45;;;;;;;5.25;1.23;;;1.50;99.90;;;;;;4865611;28;20115;-83
2021/01/19 15:38:09;;;;;;;1.27;1.00;;;;;;;;;;4856789;28;20177;-84
2021/01/19 15:40:32;;;;;;;4.22;1.15;;;1.50;99.90;;;;;;4879484;28;20123;-83
2021/01/19 15:42:55;;;;;;;1.35;1.10;;;1.50;99.90;;;;;;4862964;28;20146;-82
2021/01/19 15:45:18;;;;;;;2.08;1.10;;;1.50;99.90;;;;;;4866204;28;20524;-82
2021/01/19 15:47:42;;;;;;;2.17;1.02;;;1.50;99.90;;;;;;4864160;28;20558;-82
2021/01/19 15:50:06;;;;;;;3.70;0.95;;;1.50;99.90;;;;;;4867553;28;20607;-82
2021/01/19 15:52:29;;;;;;;1.80;1.15;;;1.40;99.90;;;;;;4864367;28;20102;-83
2021/01/19 15:54:53;;;;;;;1.35;1.15;;;1.50;99.90;;;;;;4864788;28;20091;-83
2021/01/19 15:57:16;;;;;;;1.92;1.20;;;1.50;99.90;;;;;;4866898;28;20504;-82
2021/01/19 15:59:39;;;;;;;2.83;1.40;;;1.50;99.90;;;;;;4868592;28;20432;-83
2021/01/19 16:02:02;;;;;;;2.78;1.65;;;1.50;99.90;;;;;;4866293;28;20086;-82
2021/01/19 16:04:28;;;;;;;2.67;1.40;;;1.40;99.90;;;;;;4864835;28;20483;-82
2021/01/19 16:06:52;;;;;;;2.13;1.35;;;1.50;99.90;;;;;;4866863;28;20094;-83
2021/01/19 16:09:15;;;;;;;1.55;1.40;;;;;;;;;;4873516;28;20090;-82
2021/01/19 16:11:39;;;;;;;1.98;1.48;;;1.40;99.90;;;;;;4874680;28;20092;-82
2021/01/19 16:14:04;;;;;;;1.98;1.23;;;1.40;99.90;;;;;;4874148;28;20550;-83
2021/01/19 16:16:29;;;;;;;2.53;1.40;;;1.50;99.90;;;;;;4862994;28;20185;-85
2021/01/19 16:18:55;;;;;;;2.75;1.40;;;1.50;99.90;;;;;;4866429;28;20558;-86
2021/01/19 16:21:20;;;;;;;2.35;1.70;;;1.50;99.90;;;;;;4865116;28;21631;-87
2021/01/19 16:23:45;;;;;;;7.53;2.10;;;1.50;99.90;;;;;;4869252;28;20090;-88
2021/01/19 16:26:09;;;;;;;3.67;2.10;;;1.50;99.90;;;;;;4868634;28;20133;-86
2021/01/19 16:28:33;;;;;;;3.13;2.00;;;1.50;99.90;;;;;;4868542;28;20236;-86
2021/01/19 16:30:57;;;;;;;5.78;2.30;;;1.40;99.90;;;;;;4870690;28;20123;-85
2021/01/19 16:33:20;;;;;;;3.80;1.98;;;1.40;99.90;;;;;;4873801;28;20116;-87
2021/01/19 16:35:43;;;;;;;3.90;2.20;;;;;;;;;;4873040;28;20086;-86
2021/01/19 16:38:07;;;;;;;3.58;2.13;;;1.40;99.90;;;;;;4865790;28;20089;-86
2021/01/19 16:40:31;;;;;;;3.30;2.15;;;;;;;;;;4871162;28;20185;-86
2021/01/19 16:42:54;;;;;;;7.22;2.30;;;1.40;99.90;;;;;;4873753;28;20505;-85
2021/01/19 16:45:22;;;;;;;5.15;2.67;;;1.50;99.90;;;;;;4864065;28;20174;-85
2021/01/19 16:47:46;;;;;;;32.25;13.35;;;1.50;99.90;;;;;;4855810;28;20095;-87
2021/01/19 16:50:10;;;;;;;17.52;8.52;;;1.50;99.90;;;;;;4863463;28;20089;-87
2021/01/19 16:52:40;;;;;;;8.57;3.97;;;1.50;99.90;;;;;;4875966;28;20623;-87
2021/01/19 16:55:04;;;;;;;5.45;3.15;;;1.50;99.90;;;;;;4873798;28;20103;-86
2021/01/19 16:57:28;;;;;;;3.72;2.83;;;1.50;99.90;;;;;;4875247;28;20489;-86
2021/01/19 16:59:57;;;;;;;5.03;3.13;;;1.50;99.90;;;;;;4852182;28;20089;-87
2021/01/19 17:02:22;;;;;;;4.68;3.05;;;1.50;99.90;;;;;;4878203;28;20114;-86
2021/01/19 17:04:48;;;;;;;3.28;2.13;;;1.50;99.90;;;;;;4870356;28;20089;-86